createdAt,value
2022-08-16T00:00:03.222Z,26.15
2022-08-16T00:05:35.085Z,26.21
2022-08-16T00:11:06.578Z,26.03
2022-08-16T00:17:01.435Z,26.15
2022-08-16T00:22:25.502Z,26.30
2022-08-16T00:27:58.268Z,26.41
2022-08-16T00:33:28.358Z,26.48
2022-08-16T00:38:59.695Z,26.50
2022-08-16T00:44:32.702Z,26.52
2022-08-16T00:50:01.584Z,26.45
2022-08-16T00:55:37.818Z,26.37
2022-08-16T01:01:10.654Z,26.29
2022-08-16T01:06:49.236Z,26.24
2022-08-16T01:12:29.695Z,26.04
2022-08-16T01:18:01.530Z,26.03
2022-08-16T01:23:58.628Z,26.00
2022-08-16T01:29:41.737Z,25.98
2022-08-16T01:35:27.972Z,25.75
2022-08-16T01:41:01.902Z,25.63
2022-08-16T01:46:40.277Z,25.51
2022-08-16T01:52:29.234Z,25.62
2022-08-16T01:58:25.238Z,25.73
2022-08-16T02:03:58.544Z,25.78
2022-08-16T02:09:41.246Z,25.84
2022-08-16T02:15:12.322Z,25.56
2022-08-16T02:20:48.031Z,25.43
2022-08-16T02:26:19.019Z,25.30
2022-08-16T02:32:03.231Z,25.20
2022-08-16T02:37:39.711Z,25.08
2022-08-16T02:43:26.437Z,25.28
2022-08-16T02:49:00.360Z,25.40
2022-08-16T02:54:33.033Z,25.27
2022-08-16T03:00:34.658Z,25.16
2022-08-16T03:05:59.452Z,25.01
2022-08-16T03:11:35.482Z,24.00
2022-08-16T03:17:05.874Z,23.12
2022-08-16T03:22:40.941Z,22.71
2022-08-16T03:28:17.928Z,22.58
2022-08-16T03:33:52.284Z,22.53
2022-08-16T03:39:23.671Z,22.60
2022-08-16T03:45:03.981Z,22.52
2022-08-16T03:50:37.594Z,22.49
2022-08-16T03:56:20.723Z,22.15
2022-08-16T04:01:53.977Z,22.00
2022-08-16T04:07:24.776Z,22.21
2022-08-16T04:13:00.633Z,22.20
2022-08-16T04:18:36.982Z,21.88
2022-08-16T04:24:08.037Z,22.14
2022-08-16T04:29:44.067Z,22.42
2022-08-16T04:35:20.181Z,22.57
2022-08-16T04:40:52.530Z,22.73
2022-08-16T04:46:29.929Z,22.86
2022-08-16T04:52:34.262Z,23.15
2022-08-16T04:58:03.001Z,23.35
2022-08-16T05:03:59.800Z,23.45
2022-08-16T05:09:36.301Z,23.60
2022-08-16T05:15:08.830Z,23.66
2022-08-16T05:21:01.140Z,23.72
2022-08-16T05:26:32.675Z,23.78
2022-08-16T05:32:02.553Z,23.63
2022-08-16T05:37:39.897Z,23.71
2022-08-16T05:43:13.746Z,23.71
2022-08-16T05:48:43.491Z,23.72
2022-08-16T05:54:25.835Z,23.81
2022-08-16T06:00:04.462Z,23.90
2022-08-16T06:05:41.719Z,23.92
2022-08-16T06:11:13.385Z,24.01
2022-08-16T06:16:50.710Z,24.06
2022-08-16T06:22:39.117Z,24.11
2022-08-16T06:28:17.106Z,24.17
2022-08-16T06:33:48.757Z,24.20
2022-08-16T06:39:21.567Z,24.15
2022-08-16T06:44:58.326Z,24.11
2022-08-16T06:51:00.926Z,24.12
2022-08-16T06:56:31.276Z,24.06
2022-08-16T07:02:33.033Z,24.13
2022-08-16T07:08:00.133Z,24.08
2022-08-16T07:14:00.360Z,24.20
2022-08-16T07:19:21.516Z,24.31
2022-08-16T07:24:51.641Z,24.39
2022-08-16T07:30:45.567Z,24.33
2022-08-16T07:36:14.931Z,24.48
2022-08-16T07:41:53.587Z,24.64
2022-08-16T07:47:24.399Z,24.74
2022-08-16T07:52:54.493Z,24.54
2022-08-16T07:58:34.955Z,24.14
2022-08-16T08:04:13.032Z,23.75
2022-08-16T08:09:44.261Z,24.26
2022-08-16T08:15:23.042Z,24.65
2022-08-16T08:20:58.947Z,24.69
2022-08-16T08:26:31.378Z,23.98
2022-08-16T08:32:03.020Z,24.07
2022-08-16T08:37:54.792Z,24.39
2022-08-16T08:43:27.334Z,24.21
2022-08-16T08:49:03.435Z,24.40
2022-08-16T08:54:39.616Z,24.59
2022-08-16T09:00:13.871Z,24.71
2022-08-16T09:05:51.277Z,24.57
2022-08-16T09:11:21.521Z,24.86
2022-08-16T09:17:11.885Z,25.19
2022-08-16T09:22:51.378Z,25.48
2022-08-16T09:29:13.750Z,25.66
2022-08-16T09:34:21.909Z,25.88
2022-08-16T09:39:52.782Z,26.23
2022-08-16T09:45:22.728Z,26.69
2022-08-16T09:50:52.840Z,27.22
2022-08-16T09:56:31.648Z,27.78
2022-08-16T10:02:25.828Z,28.18
2022-08-16T10:07:55.881Z,28.56
2022-08-16T10:13:27.009Z,29.41
2022-08-16T10:19:06.367Z,29.74
2022-08-16T10:24:35.680Z,30.02
2022-08-16T10:30:25.653Z,30.04
2022-08-16T10:35:57.632Z,30.50
2022-08-16T10:41:28.652Z,31.02
2022-08-16T10:46:59.820Z,31.20
2022-08-16T10:58:12.005Z,31.36
2022-08-16T11:03:45.743Z,31.43
2022-08-16T11:09:25.228Z,31.16
2022-08-16T11:15:13.517Z,30.92
2022-08-16T11:20:49.111Z,30.68
2022-08-16T11:26:23.632Z,30.06
2022-08-16T11:31:53.808Z,30.22
2022-08-16T11:37:27.514Z,30.30
2022-08-16T11:43:04.700Z,30.29
2022-08-16T11:48:34.768Z,30.27
2022-08-16T11:54:05.289Z,30.35
2022-08-16T11:59:40.274Z,30.45
2022-08-16T12:05:12.952Z,30.79
2022-08-16T12:10:45.566Z,31.02
2022-08-16T12:16:17.567Z,31.25
2022-08-16T12:21:58.464Z,31.89
2022-08-16T12:27:29.634Z,32.23
2022-08-16T12:33:03.198Z,32.62
2022-08-16T12:38:41.130Z,32.85
2022-08-16T12:44:20.081Z,33.12
2022-08-16T12:49:49.734Z,32.94
2022-08-16T12:55:18.699Z,33.18
2022-08-16T13:00:49.625Z,32.86
2022-08-16T13:06:19.925Z,33.01
2022-08-16T13:12:00.406Z,32.87
2022-08-16T13:17:30.727Z,32.16
2022-08-16T13:23:01.972Z,31.80
2022-08-16T13:28:32.358Z,31.87
2022-08-16T13:34:03.357Z,32.14
2022-08-16T13:39:40.361Z,32.62
2022-08-16T13:45:15.479Z,32.44
2022-08-16T13:50:51.507Z,32.65
2022-08-16T13:56:24.996Z,32.23
2022-08-16T14:01:59.883Z,30.91
2022-08-16T14:07:32.622Z,30.43
2022-08-16T14:13:06.810Z,30.42
2022-08-16T14:18:42.818Z,30.01
2022-08-16T14:24:29.708Z,29.81
2022-08-16T14:30:01.949Z,29.85
2022-08-16T14:35:48.332Z,30.12
2022-08-16T14:41:20.187Z,30.32
2022-08-16T14:46:49.570Z,29.70
2022-08-16T14:52:51.904Z,29.53
2022-08-16T14:58:18.899Z,30.24
2022-08-16T15:03:49.445Z,30.42
2022-08-16T15:09:24.941Z,30.26
2022-08-16T15:14:56.765Z,30.24
2022-08-16T15:20:29.514Z,29.92
2022-08-16T15:26:03.832Z,29.43
2022-08-16T15:31:34.950Z,29.23
2022-08-16T15:37:05.205Z,29.07
2022-08-16T15:42:35.696Z,28.60
2022-08-16T15:48:06.439Z,28.73
2022-08-16T15:53:37.672Z,28.61
2022-08-16T15:59:11.483Z,28.48
2022-08-16T16:04:44.672Z,28.65
2022-08-16T16:10:13.707Z,28.41
2022-08-16T16:15:45.257Z,28.19
2022-08-16T16:21:19.851Z,28.09
2022-08-16T16:26:49.196Z,27.92
2022-08-16T16:32:19.638Z,27.79
2022-08-16T16:38:08.097Z,27.60
2022-08-16T16:43:40.454Z,27.41
2022-08-16T16:49:10.612Z,27.51
2022-08-16T16:54:41.642Z,27.50
2022-08-16T17:00:26.210Z,27.42
2022-08-16T17:06:08.874Z,27.32
2022-08-16T17:11:42.807Z,27.13
2022-08-16T17:23:01.120Z,27.02
2022-08-16T17:28:58.071Z,26.98
2022-08-16T17:34:29.585Z,27.02
2022-08-16T17:39:26.422Z,27.17
2022-08-16T17:40:00.066Z,26.94
2022-08-16T17:45:31.122Z,26.71
2022-08-16T17:51:00.776Z,26.64
2022-08-16T17:56:29.549Z,26.65
2022-08-16T18:01:59.786Z,26.64
2022-08-16T18:07:44.004Z,26.65
2022-08-16T18:13:13.735Z,26.66
2022-08-16T18:18:44.094Z,26.67
2022-08-16T18:24:14.936Z,26.66
2022-08-16T18:29:45.116Z,26.63
2022-08-16T18:35:17.026Z,26.62
2022-08-16T18:40:46.465Z,26.57
2022-08-16T18:46:15.398Z,26.50
2022-08-16T18:51:46.117Z,26.44
2022-08-16T18:57:15.407Z,26.43
2022-08-16T19:02:58.162Z,26.41
2022-08-16T19:08:30.261Z,26.34
2022-08-16T19:13:59.506Z,26.35
2022-08-16T19:19:28.620Z,26.35
2022-08-16T19:24:58.926Z,26.31
2022-08-16T19:30:28.343Z,26.30
2022-08-16T19:35:57.299Z,26.25
2022-08-16T19:41:27.372Z,26.17
2022-08-16T19:46:56.764Z,26.08
2022-08-16T19:52:28.856Z,25.58
2022-08-16T19:58:00.269Z,25.23
2022-08-16T20:03:29.689Z,25.41
2022-08-16T20:08:59.094Z,25.53
2022-08-16T20:14:31.012Z,25.60
2022-08-16T20:20:00.249Z,25.63
2022-08-16T20:25:30.865Z,25.49
2022-08-16T20:31:03.659Z,25.45
2022-08-16T20:36:32.459Z,25.49
2022-08-16T20:42:00.992Z,25.52
2022-08-16T20:47:32.326Z,25.56
2022-08-16T20:53:01.132Z,25.36
2022-08-16T20:58:30.033Z,25.30
2022-08-16T21:04:00.577Z,25.24
2022-08-16T21:09:33.602Z,24.83
2022-08-16T21:15:08.365Z,24.89
2022-08-16T21:20:38.429Z,24.84
2022-08-16T21:26:10.768Z,24.83
2022-08-16T21:31:41.202Z,24.72
2022-08-16T21:37:12.156Z,24.60
2022-08-16T21:42:45.504Z,24.54
2022-08-16T21:48:14.621Z,24.50
2022-08-16T21:53:45.027Z,24.31
2022-08-16T21:59:16.525Z,24.25
2022-08-16T22:04:45.350Z,24.26
2022-08-16T22:11:06.663Z,24.23
2022-08-16T22:16:04.936Z,24.31
2022-08-16T22:21:35.214Z,24.39
2022-08-16T22:27:05.710Z,24.49
2022-08-16T22:32:39.741Z,24.57
2022-08-16T22:38:54.647Z,24.55
2022-08-16T22:44:00.200Z,24.41
2022-08-16T22:49:29.562Z,24.42
2022-08-16T22:54:57.898Z,24.43
2022-08-16T23:00:31.041Z,24.48
2022-08-16T23:06:00.871Z,24.43
2022-08-16T23:11:30.042Z,24.42
2022-08-16T23:17:00.452Z,24.15
2022-08-16T23:22:29.008Z,24.21
2022-08-16T23:27:59.022Z,24.17
2022-08-16T23:33:29.679Z,24.18
2022-08-16T23:38:59.445Z,24.00
2022-08-16T23:44:56.003Z,23.58
2022-08-16T23:50:19.689Z,23.69
2022-08-16T23:55:51.333Z,23.88
